sensor_id;sensor_type;location;lat;lon;timestamp;temperature;humidity
17208;DHT22;8720;48.488;9.202;2023-08-24T00:00:29;23.00;49.80
17208;DHT22;8720;48.488;9.202;2023-08-24T00:02:58;23.00;49.80
17208;DHT22;8720;48.488;9.202;2023-08-24T00:05:25;22.90;49.80
17208;DHT22;8720;48.488;9.202;2023-08-24T00:07:52;22.90;50.20
17208;DHT22;8720;48.488;9.202;2023-08-24T00:10:20;22.90;50.40
17208;DHT22;8720;48.488;9.202;2023-08-24T00:12:47;22.80;50.10
17208;DHT22;8720;48.488;9.202;2023-08-24T00:15:15;22.80;50.40
17208;DHT22;8720;48.488;9.202;2023-08-24T00:17:43;22.80;50.70
17208;DHT22;8720;48.488;9.202;2023-08-24T00:20:10;22.80;50.40
17208;DHT22;8720;48.488;9.202;2023-08-24T00:22:39;22.70;50.60
17208;DHT22;8720;48.488;9.202;2023-08-24T00:25:07;22.70;50.60
17208;DHT22;8720;48.488;9.202;2023-08-24T00:27:35;22.70;50.70
17208;DHT22;8720;48.488;9.202;2023-08-24T00:30:04;22.60;50.50
17208;DHT22;8720;48.488;9.202;2023-08-24T00:32:34;22.60;50.60
17208;DHT22;8720;48.488;9.202;2023-08-24T00:35:02;22.60;50.70
17208;DHT22;8720;48.488;9.202;2023-08-24T00:37:31;22.60;50.80
17208;DHT22;8720;48.488;9.202;2023-08-24T00:40:00;22.60;51.50
17208;DHT22;8720;48.488;9.202;2023-08-24T00:42:30;22.50;51.10
17208;DHT22;8720;48.488;9.202;2023-08-24T00:44:58;22.50;51.20
17208;DHT22;8720;48.488;9.202;2023-08-24T00:47:25;22.50;51.30
17208;DHT22;8720;48.488;9.202;2023-08-24T00:49:54;22.50;51.30
17208;DHT22;8720;48.488;9.202;2023-08-24T00:52:21;22.50;51.80
17208;DHT22;8720;48.488;9.202;2023-08-24T00:54:50;22.40;51.60
17208;DHT22;8720;48.488;9.202;2023-08-24T00:57:18;22.40;51.70
17208;DHT22;8720;48.488;9.202;2023-08-24T00:59:46;22.40;51.90
17208;DHT22;8720;48.488;9.202;2023-08-24T01:02:13;22.30;52.10
17208;DHT22;8720;48.488;9.202;2023-08-24T01:04:41;22.30;52.20
17208;DHT22;8720;48.488;9.202;2023-08-24T01:07:11;22.30;52.30
17208;DHT22;8720;48.488;9.202;2023-08-24T01:09:39;22.30;52.70
17208;DHT22;8720;48.488;9.202;2023-08-24T01:12:14;22.20;52.60
17208;DHT22;8720;48.488;9.202;2023-08-24T01:14:57;22.20;52.80
17208;DHT22;8720;48.488;9.202;2023-08-24T01:17:31;22.20;53.10
17208;DHT22;8720;48.488;9.202;2023-08-24T01:20:01;22.10;53.00
17208;DHT22;8720;48.488;9.202;2023-08-24T01:22:37;22.10;53.10
17208;DHT22;8720;48.488;9.202;2023-08-24T01:25:15;22.10;53.50
17208;DHT22;8720;48.488;9.202;2023-08-24T01:27:45;22.00;53.30
17208;DHT22;8720;48.488;9.202;2023-08-24T01:30:17;22.00;53.10
17208;DHT22;8720;48.488;9.202;2023-08-24T01:32:45;22.00;53.10
17208;DHT22;8720;48.488;9.202;2023-08-24T01:35:13;22.00;53.30
17208;DHT22;8720;48.488;9.202;2023-08-24T01:37:40;21.90;53.40
17208;DHT22;8720;48.488;9.202;2023-08-24T01:40:14;21.90;53.40
17208;DHT22;8720;48.488;9.202;2023-08-24T01:42:51;21.90;53.80
17208;DHT22;8720;48.488;9.202;2023-08-24T01:45:29;21.90;54.10
17208;DHT22;8720;48.488;9.202;2023-08-24T01:48:01;21.90;53.80
17208;DHT22;8720;48.488;9.202;2023-08-24T01:50:30;21.90;53.70
17208;DHT22;8720;48.488;9.202;2023-08-24T01:52:58;21.80;53.40
17208;DHT22;8720;48.488;9.202;2023-08-24T01:55:26;21.80;53.60
17208;DHT22;8720;48.488;9.202;2023-08-24T01:57:55;21.80;53.80
17208;DHT22;8720;48.488;9.202;2023-08-24T02:05:35;21.70;53.70
17208;DHT22;8720;48.488;9.202;2023-08-24T02:08:03;21.70;53.90
17208;DHT22;8720;48.488;9.202;2023-08-24T02:10:31;21.70;54.00
17208;DHT22;8720;48.488;9.202;2023-08-24T02:12:59;21.70;54.70
17208;DHT22;8720;48.488;9.202;2023-08-24T02:15:27;21.60;54.20
17208;DHT22;8720;48.488;9.202;2023-08-24T02:17:55;21.60;54.10
17208;DHT22;8720;48.488;9.202;2023-08-24T02:20:23;21.60;54.40
17208;DHT22;8720;48.488;9.202;2023-08-24T02:22:51;21.60;54.40
17208;DHT22;8720;48.488;9.202;2023-08-24T02:25:18;21.50;54.40
17208;DHT22;8720;48.488;9.202;2023-08-24T02:27:45;21.50;54.30
17208;DHT22;8720;48.488;9.202;2023-08-24T02:30:15;21.50;54.30
17208;DHT22;8720;48.488;9.202;2023-08-24T02:32:43;21.50;54.40
17208;DHT22;8720;48.488;9.202;2023-08-24T02:35:10;21.40;54.50
17208;DHT22;8720;48.488;9.202;2023-08-24T02:37:38;21.40;54.70
17208;DHT22;8720;48.488;9.202;2023-08-24T02:40:06;21.40;54.70
17208;DHT22;8720;48.488;9.202;2023-08-24T02:42:35;21.30;54.60
17208;DHT22;8720;48.488;9.202;2023-08-24T02:45:04;21.30;54.70
17208;DHT22;8720;48.488;9.202;2023-08-24T02:47:33;21.30;54.90
17208;DHT22;8720;48.488;9.202;2023-08-24T02:50:01;21.30;55.10
17208;DHT22;8720;48.488;9.202;2023-08-24T02:52:29;21.30;55.00
17208;DHT22;8720;48.488;9.202;2023-08-24T02:54:56;21.30;55.20
17208;DHT22;8720;48.488;9.202;2023-08-24T02:57:24;21.20;55.40
17208;DHT22;8720;48.488;9.202;2023-08-24T02:59:51;21.20;55.60
17208;DHT22;8720;48.488;9.202;2023-08-24T03:02:18;21.20;55.80
17208;DHT22;8720;48.488;9.202;2023-08-24T03:04:49;21.20;55.90
17208;DHT22;8720;48.488;9.202;2023-08-24T03:07:17;21.20;56.10
17208;DHT22;8720;48.488;9.202;2023-08-24T03:09:44;21.20;56.10
17208;DHT22;8720;48.488;9.202;2023-08-24T03:12:11;21.30;56.30
17208;DHT22;8720;48.488;9.202;2023-08-24T03:14:39;21.30;56.40
17208;DHT22;8720;48.488;9.202;2023-08-24T03:17:09;21.30;56.80
17208;DHT22;8720;48.488;9.202;2023-08-24T03:19:36;21.30;56.50
17208;DHT22;8720;48.488;9.202;2023-08-24T03:22:05;21.30;56.60
17208;DHT22;8720;48.488;9.202;2023-08-24T03:24:33;21.30;56.60
17208;DHT22;8720;48.488;9.202;2023-08-24T03:27:00;21.30;56.40
17208;DHT22;8720;48.488;9.202;2023-08-24T03:29:27;21.30;56.50
17208;DHT22;8720;48.488;9.202;2023-08-24T03:31:55;21.30;56.60
17208;DHT22;8720;48.488;9.202;2023-08-24T03:34:22;21.30;56.70
17208;DHT22;8720;48.488;9.202;2023-08-24T03:36:49;21.30;56.70
17208;DHT22;8720;48.488;9.202;2023-08-24T03:39:19;21.20;56.60
17208;DHT22;8720;48.488;9.202;2023-08-24T03:41:47;21.20;56.90
17208;DHT22;8720;48.488;9.202;2023-08-24T03:44:14;21.20;56.80
17208;DHT22;8720;48.488;9.202;2023-08-24T03:46:41;21.20;56.80
17208;DHT22;8720;48.488;9.202;2023-08-24T03:49:09;21.10;56.80
17208;DHT22;8720;48.488;9.202;2023-08-24T03:51:36;21.10;56.90
17208;DHT22;8720;48.488;9.202;2023-08-24T03:54:04;21.10;57.00
17208;DHT22;8720;48.488;9.202;2023-08-24T03:56:33;21.10;57.10
17208;DHT22;8720;48.488;9.202;2023-08-24T03:59:00;21.10;57.30
17208;DHT22;8720;48.488;9.202;2023-08-24T04:01:28;21.00;57.10
17208;DHT22;8720;48.488;9.202;2023-08-24T04:03:56;21.00;57.40
17208;DHT22;8720;48.488;9.202;2023-08-24T04:06:23;21.00;57.00
17208;DHT22;8720;48.488;9.202;2023-08-24T04:08:50;21.00;57.10
17208;DHT22;8720;48.488;9.202;2023-08-24T04:11:18;21.00;57.30
17208;DHT22;8720;48.488;9.202;2023-08-24T04:13:47;21.00;57.40
17208;DHT22;8720;48.488;9.202;2023-08-24T04:16:14;21.00;57.50
17208;DHT22;8720;48.488;9.202;2023-08-24T04:18:42;21.00;57.20
17208;DHT22;8720;48.488;9.202;2023-08-24T04:21:09;21.00;57.20
17208;DHT22;8720;48.488;9.202;2023-08-24T04:23:36;21.00;57.30
17208;DHT22;8720;48.488;9.202;2023-08-24T04:26:04;21.10;57.60
17208;DHT22;8720;48.488;9.202;2023-08-24T04:28:32;21.10;57.60
17208;DHT22;8720;48.488;9.202;2023-08-24T04:31:01;21.10;57.40
17208;DHT22;8720;48.488;9.202;2023-08-24T04:33:28;21.10;57.40
17208;DHT22;8720;48.488;9.202;2023-08-24T04:35:56;21.20;57.40
17208;DHT22;8720;48.488;9.202;2023-08-24T04:38:23;21.20;57.50
17208;DHT22;8720;48.488;9.202;2023-08-24T04:40:52;21.20;57.50
17208;DHT22;8720;48.488;9.202;2023-08-24T04:43:21;21.20;57.50
17208;DHT22;8720;48.488;9.202;2023-08-24T04:45:51;21.20;58.60
17208;DHT22;8720;48.488;9.202;2023-08-24T04:48:21;21.20;58.20
17208;DHT22;8720;48.488;9.202;2023-08-24T04:50:49;21.20;58.00
17208;DHT22;8720;48.488;9.202;2023-08-24T04:53:19;21.30;57.90
17208;DHT22;8720;48.488;9.202;2023-08-24T04:55:47;21.30;57.90
17208;DHT22;8720;48.488;9.202;2023-08-24T04:58:14;21.40;57.90
17208;DHT22;8720;48.488;9.202;2023-08-24T05:00:41;21.40;57.90
17208;DHT22;8720;48.488;9.202;2023-08-24T05:03:09;21.50;57.90
17208;DHT22;8720;48.488;9.202;2023-08-24T05:05:38;21.40;57.70
17208;DHT22;8720;48.488;9.202;2023-08-24T05:08:06;21.50;57.70
17208;DHT22;8720;48.488;9.202;2023-08-24T05:10:36;21.50;57.80
17208;DHT22;8720;48.488;9.202;2023-08-24T05:13:04;21.50;57.90
17208;DHT22;8720;48.488;9.202;2023-08-24T05:15:31;21.50;57.90
17208;DHT22;8720;48.488;9.202;2023-08-24T05:17:58;21.60;58.00
17208;DHT22;8720;48.488;9.202;2023-08-24T05:20:26;21.60;57.90
17208;DHT22;8720;48.488;9.202;2023-08-24T05:22:55;21.60;57.90
17208;DHT22;8720;48.488;9.202;2023-08-24T05:25:23;21.70;58.00
17208;DHT22;8720;48.488;9.202;2023-08-24T05:27:50;21.70;57.80
17208;DHT22;8720;48.488;9.202;2023-08-24T05:30:18;21.70;57.80
17208;DHT22;8720;48.488;9.202;2023-08-24T05:32:45;21.70;57.80
17208;DHT22;8720;48.488;9.202;2023-08-24T05:35:12;21.70;58.40
17208;DHT22;8720;48.488;9.202;2023-08-24T05:37:39;21.80;57.90
17208;DHT22;8720;48.488;9.202;2023-08-24T05:40:09;21.80;57.90
17208;DHT22;8720;48.488;9.202;2023-08-24T05:42:37;21.80;57.80
17208;DHT22;8720;48.488;9.202;2023-08-24T05:45:05;21.90;57.70
17208;DHT22;8720;48.488;9.202;2023-08-24T05:47:33;21.90;57.80
17208;DHT22;8720;48.488;9.202;2023-08-24T05:50:00;22.00;57.80
17208;DHT22;8720;48.488;9.202;2023-08-24T05:52:27;22.00;57.60
17208;DHT22;8720;48.488;9.202;2023-08-24T05:54:55;22.10;57.50
17208;DHT22;8720;48.488;9.202;2023-08-24T05:57:23;22.10;57.40
17208;DHT22;8720;48.488;9.202;2023-08-24T05:59:51;22.10;57.40
17208;DHT22;8720;48.488;9.202;2023-08-24T06:02:18;22.20;57.50
17208;DHT22;8720;48.488;9.202;2023-08-24T06:04:46;22.30;57.60
17208;DHT22;8720;48.488;9.202;2023-08-24T06:07:13;22.30;57.50
17208;DHT22;8720;48.488;9.202;2023-08-24T06:09:40;22.40;57.60
17208;DHT22;8720;48.488;9.202;2023-08-24T06:12:08;22.50;58.40
17208;DHT22;8720;48.488;9.202;2023-08-24T06:14:36;22.60;57.70
17208;DHT22;8720;48.488;9.202;2023-08-24T06:17:04;22.70;57.40
17208;DHT22;8720;48.488;9.202;2023-08-24T06:19:31;22.80;57.30
17208;DHT22;8720;48.488;9.202;2023-08-24T06:21:58;22.90;57.20
17208;DHT22;8720;48.488;9.202;2023-08-24T06:24:25;22.90;57.10
17208;DHT22;8720;48.488;9.202;2023-08-24T06:26:52;23.00;57.00
17208;DHT22;8720;48.488;9.202;2023-08-24T06:29:20;23.00;56.80
17208;DHT22;8720;48.488;9.202;2023-08-24T06:31:48;23.00;56.80
17208;DHT22;8720;48.488;9.202;2023-08-24T06:34:16;23.10;56.80
17208;DHT22;8720;48.488;9.202;2023-08-24T06:36:43;23.10;56.70
17208;DHT22;8720;48.488;9.202;2023-08-24T06:39:10;23.10;56.70
17208;DHT22;8720;48.488;9.202;2023-08-24T06:41:38;23.10;56.70
17208;DHT22;8720;48.488;9.202;2023-08-24T06:44:08;23.10;56.70
17208;DHT22;8720;48.488;9.202;2023-08-24T06:46:35;23.10;56.70
17208;DHT22;8720;48.488;9.202;2023-08-24T06:49:04;23.10;56.70
17208;DHT22;8720;48.488;9.202;2023-08-24T06:51:31;23.10;56.80
17208;DHT22;8720;48.488;9.202;2023-08-24T06:54:01;23.10;56.70
17208;DHT22;8720;48.488;9.202;2023-08-24T06:56:29;23.10;56.60
17208;DHT22;8720;48.488;9.202;2023-08-24T06:58:56;23.20;56.90
17208;DHT22;8720;48.488;9.202;2023-08-24T07:01:23;23.20;56.90
17208;DHT22;8720;48.488;9.202;2023-08-24T07:03:51;23.20;57.00
17208;DHT22;8720;48.488;9.202;2023-08-24T07:06:20;23.30;57.00
17208;DHT22;8720;48.488;9.202;2023-08-24T07:08:47;23.30;56.90
17208;DHT22;8720;48.488;9.202;2023-08-24T07:11:15;23.30;56.80
17208;DHT22;8720;48.488;9.202;2023-08-24T07:13:43;23.30;56.70
17208;DHT22;8720;48.488;9.202;2023-08-24T07:16:10;23.40;56.70
17208;DHT22;8720;48.488;9.202;2023-08-24T07:18:38;23.40;56.70
17208;DHT22;8720;48.488;9.202;2023-08-24T07:21:05;23.40;56.60
17208;DHT22;8720;48.488;9.202;2023-08-24T07:23:33;23.40;56.70
17208;DHT22;8720;48.488;9.202;2023-08-24T07:26:01;23.30;56.80
17208;DHT22;8720;48.488;9.202;2023-08-24T07:28:29;23.30;57.40
17208;DHT22;8720;48.488;9.202;2023-08-24T07:30:56;23.30;57.20
17208;DHT22;8720;48.488;9.202;2023-08-24T07:33:23;23.40;56.90
17208;DHT22;8720;48.488;9.202;2023-08-24T07:35:52;23.50;56.70
17208;DHT22;8720;48.488;9.202;2023-08-24T07:38:19;23.60;56.50
17208;DHT22;8720;48.488;9.202;2023-08-24T07:40:48;23.70;56.30
17208;DHT22;8720;48.488;9.202;2023-08-24T07:43:15;23.80;56.30
17208;DHT22;8720;48.488;9.202;2023-08-24T07:45:42;24.00;56.60
17208;DHT22;8720;48.488;9.202;2023-08-24T07:48:09;24.20;56.40
17208;DHT22;8720;48.488;9.202;2023-08-24T07:50:37;24.50;55.90
17208;DHT22;8720;48.488;9.202;2023-08-24T07:53:04;24.80;55.40
17208;DHT22;8720;48.488;9.202;2023-08-24T07:55:31;24.90;55.00
17208;DHT22;8720;48.488;9.202;2023-08-24T07:58:00;25.10;54.70
17208;DHT22;8720;48.488;9.202;2023-08-24T08:00:28;25.20;54.40
17208;DHT22;8720;48.488;9.202;2023-08-24T08:02:55;25.40;54.60
17208;DHT22;8720;48.488;9.202;2023-08-24T08:05:22;25.60;54.60
17208;DHT22;8720;48.488;9.202;2023-08-24T08:07:50;25.90;55.10
17208;DHT22;8720;48.488;9.202;2023-08-24T08:10:17;26.30;53.90
17208;DHT22;8720;48.488;9.202;2023-08-24T08:12:46;26.60;53.50
17208;DHT22;8720;48.488;9.202;2023-08-24T08:15:15;27.10;53.00
17208;DHT22;8720;48.488;9.202;2023-08-24T08:17:42;27.50;51.80
17208;DHT22;8720;48.488;9.202;2023-08-24T08:20:10;27.80;51.40
17208;DHT22;8720;48.488;9.202;2023-08-24T08:22:38;28.20;50.80
17208;DHT22;8720;48.488;9.202;2023-08-24T08:25:05;28.60;50.60
17208;DHT22;8720;48.488;9.202;2023-08-24T08:27:32;28.90;49.40
17208;DHT22;8720;48.488;9.202;2023-08-24T08:29:59;29.20;48.60
17208;DHT22;8720;48.488;9.202;2023-08-24T08:32:28;29.50;48.70
17208;DHT22;8720;48.488;9.202;2023-08-24T08:34:55;29.70;47.30
17208;DHT22;8720;48.488;9.202;2023-08-24T08:37:24;29.90;47.50
17208;DHT22;8720;48.488;9.202;2023-08-24T08:39:51;30.10;47.10
17208;DHT22;8720;48.488;9.202;2023-08-24T08:42:18;30.20;46.30
17208;DHT22;8720;48.488;9.202;2023-08-24T08:44:46;30.20;45.90
17208;DHT22;8720;48.488;9.202;2023-08-24T08:47:14;30.20;45.60
17208;DHT22;8720;48.488;9.202;2023-08-24T08:49:43;30.30;45.50
17208;DHT22;8720;48.488;9.202;2023-08-24T08:52:14;30.30;45.30
17208;DHT22;8720;48.488;9.202;2023-08-24T08:54:41;30.30;45.50
17208;DHT22;8720;48.488;9.202;2023-08-24T08:57:10;30.30;45.50
17208;DHT22;8720;48.488;9.202;2023-08-24T08:59:38;30.40;45.30
17208;DHT22;8720;48.488;9.202;2023-08-24T09:02:06;30.40;45.10
17208;DHT22;8720;48.488;9.202;2023-08-24T09:04:39;30.40;44.90
17208;DHT22;8720;48.488;9.202;2023-08-24T09:07:13;30.50;45.00
17208;DHT22;8720;48.488;9.202;2023-08-24T09:09:41;30.50;44.50
17208;DHT22;8720;48.488;9.202;2023-08-24T09:12:09;30.60;44.60
17208;DHT22;8720;48.488;9.202;2023-08-24T09:14:36;30.60;44.60
17208;DHT22;8720;48.488;9.202;2023-08-24T09:17:05;30.70;44.60
17208;DHT22;8720;48.488;9.202;2023-08-24T09:19:33;30.70;44.40
17208;DHT22;8720;48.488;9.202;2023-08-24T09:22:04;30.80;44.30
17208;DHT22;8720;48.488;9.202;2023-08-24T09:24:34;30.80;44.30
17208;DHT22;8720;48.488;9.202;2023-08-24T09:27:14;30.90;43.90
17208;DHT22;8720;48.488;9.202;2023-08-24T09:29:42;30.90;43.40
17208;DHT22;8720;48.488;9.202;2023-08-24T09:32:09;31.00;43.60
17208;DHT22;8720;48.488;9.202;2023-08-24T09:34:39;31.00;43.50
17208;DHT22;8720;48.488;9.202;2023-08-24T09:37:12;31.00;43.30
17208;DHT22;8720;48.488;9.202;2023-08-24T09:39:42;31.10;42.70
17208;DHT22;8720;48.488;9.202;2023-08-24T09:42:12;31.00;43.10
17208;DHT22;8720;48.488;9.202;2023-08-24T09:44:43;31.10;43.40
17208;DHT22;8720;48.488;9.202;2023-08-24T09:47:11;31.10;43.50
17208;DHT22;8720;48.488;9.202;2023-08-24T09:49:39;31.10;44.10
17208;DHT22;8720;48.488;9.202;2023-08-24T09:52:07;31.10;44.00
17208;DHT22;8720;48.488;9.202;2023-08-24T09:54:37;31.10;43.50
17208;DHT22;8720;48.488;9.202;2023-08-24T09:57:07;31.10;43.50
17208;DHT22;8720;48.488;9.202;2023-08-24T09:59:39;31.10;43.50
17208;DHT22;8720;48.488;9.202;2023-08-24T10:02:20;31.10;43.90
17208;DHT22;8720;48.488;9.202;2023-08-24T10:04:51;31.20;43.40
17208;DHT22;8720;48.488;9.202;2023-08-24T10:07:23;31.20;43.50
17208;DHT22;8720;48.488;9.202;2023-08-24T10:09:57;31.20;43.30
17208;DHT22;8720;48.488;9.202;2023-08-24T10:12:38;31.20;43.20
17208;DHT22;8720;48.488;9.202;2023-08-24T10:15:10;31.20;43.10
17208;DHT22;8720;48.488;9.202;2023-08-24T10:17:39;31.30;43.50
17208;DHT22;8720;48.488;9.202;2023-08-24T10:20:07;31.30;43.30
17208;DHT22;8720;48.488;9.202;2023-08-24T10:22:37;31.40;43.30
17208;DHT22;8720;48.488;9.202;2023-08-24T10:25:08;31.40;43.30
17208;DHT22;8720;48.488;9.202;2023-08-24T10:27:39;31.50;43.40
17208;DHT22;8720;48.488;9.202;2023-08-24T10:30:10;31.50;43.20
17208;DHT22;8720;48.488;9.202;2023-08-24T10:32:40;31.60;43.30
17208;DHT22;8720;48.488;9.202;2023-08-24T10:35:08;31.60;43.30
17208;DHT22;8720;48.488;9.202;2023-08-24T10:37:36;31.70;43.30
17208;DHT22;8720;48.488;9.202;2023-08-24T10:40:05;31.70;43.40
17208;DHT22;8720;48.488;9.202;2023-08-24T10:42:44;31.80;43.30
17208;DHT22;8720;48.488;9.202;2023-08-24T10:45:14;31.80;43.00
17208;DHT22;8720;48.488;9.202;2023-08-24T10:47:45;31.90;43.00
17208;DHT22;8720;48.488;9.202;2023-08-24T10:50:14;32.00;42.80
17208;DHT22;8720;48.488;9.202;2023-08-24T10:52:43;32.00;43.00
17208;DHT22;8720;48.488;9.202;2023-08-24T10:55:25;32.00;43.10
17208;DHT22;8720;48.488;9.202;2023-08-24T10:57:59;32.10;42.70
17208;DHT22;8720;48.488;9.202;2023-08-24T11:00:28;32.20;43.50
17208;DHT22;8720;48.488;9.202;2023-08-24T11:02:57;32.20;43.10
17208;DHT22;8720;48.488;9.202;2023-08-24T11:05:26;32.30;43.70
17208;DHT22;8720;48.488;9.202;2023-08-24T11:07:58;32.40;43.00
17208;DHT22;8720;48.488;9.202;2023-08-24T11:10:31;32.50;42.80
17208;DHT22;8720;48.488;9.202;2023-08-24T11:13:13;32.50;42.50
17208;DHT22;8720;48.488;9.202;2023-08-24T11:15:43;32.60;42.30
17208;DHT22;8720;48.488;9.202;2023-08-24T11:18:22;32.70;42.40
17208;DHT22;8720;48.488;9.202;2023-08-24T11:20:53;32.70;42.20
17208;DHT22;8720;48.488;9.202;2023-08-24T11:23:22;32.80;42.00
17208;DHT22;8720;48.488;9.202;2023-08-24T11:25:51;32.90;42.00
17208;DHT22;8720;48.488;9.202;2023-08-24T11:28:24;32.90;42.00
17208;DHT22;8720;48.488;9.202;2023-08-24T11:30:52;33.00;41.80
17208;DHT22;8720;48.488;9.202;2023-08-24T11:33:28;33.00;41.70
17208;DHT22;8720;48.488;9.202;2023-08-24T11:35:56;33.10;41.80
17208;DHT22;8720;48.488;9.202;2023-08-24T11:38:24;33.20;41.60
17208;DHT22;8720;48.488;9.202;2023-08-24T11:40:52;33.20;42.00
17208;DHT22;8720;48.488;9.202;2023-08-24T11:43:25;33.30;41.40
17208;DHT22;8720;48.488;9.202;2023-08-24T11:45:54;33.30;41.20
17208;DHT22;8720;48.488;9.202;2023-08-24T11:48:25;33.40;41.10
17208;DHT22;8720;48.488;9.202;2023-08-24T11:50:55;33.50;41.30
17208;DHT22;8720;48.488;9.202;2023-08-24T11:53:22;33.60;40.90
17208;DHT22;8720;48.488;9.202;2023-08-24T11:55:52;33.60;40.90
17208;DHT22;8720;48.488;9.202;2023-08-24T11:58:20;33.70;41.10
17208;DHT22;8720;48.488;9.202;2023-08-24T12:00:48;33.80;40.80
17208;DHT22;8720;48.488;9.202;2023-08-24T12:03:16;33.90;40.80
17208;DHT22;8720;48.488;9.202;2023-08-24T12:05:44;34.00;40.90
17208;DHT22;8720;48.488;9.202;2023-08-24T12:08:12;34.10;40.40
17208;DHT22;8720;48.488;9.202;2023-08-24T12:10:42;34.20;40.30
17208;DHT22;8720;48.488;9.202;2023-08-24T12:13:12;34.30;38.90
17208;DHT22;8720;48.488;9.202;2023-08-24T12:15:40;34.40;39.00
17208;DHT22;8720;48.488;9.202;2023-08-24T12:18:11;34.50;38.80
17208;DHT22;8720;48.488;9.202;2023-08-24T12:20:40;34.60;37.90
17208;DHT22;8720;48.488;9.202;2023-08-24T12:23:11;34.70;38.00
17208;DHT22;8720;48.488;9.202;2023-08-24T12:25:42;34.70;37.80
17208;DHT22;8720;48.488;9.202;2023-08-24T12:28:11;34.90;37.40
17208;DHT22;8720;48.488;9.202;2023-08-24T12:30:46;35.00;37.60
17208;DHT22;8720;48.488;9.202;2023-08-24T12:33:23;35.20;37.40
17208;DHT22;8720;48.488;9.202;2023-08-24T12:35:52;35.20;37.10
17208;DHT22;8720;48.488;9.202;2023-08-24T12:38:21;35.30;37.00
17208;DHT22;8720;48.488;9.202;2023-08-24T12:40:49;35.40;37.30
17208;DHT22;8720;48.488;9.202;2023-08-24T12:43:17;35.40;36.90
17208;DHT22;8720;48.488;9.202;2023-08-24T12:45:44;35.50;36.70
17208;DHT22;8720;48.488;9.202;2023-08-24T12:48:11;35.60;36.40
17208;DHT22;8720;48.488;9.202;2023-08-24T12:50:40;35.70;35.90
17208;DHT22;8720;48.488;9.202;2023-08-24T12:53:07;35.70;35.70
17208;DHT22;8720;48.488;9.202;2023-08-24T12:55:38;35.80;36.20
17208;DHT22;8720;48.488;9.202;2023-08-24T12:58:06;35.90;35.80
17208;DHT22;8720;48.488;9.202;2023-08-24T13:00:33;35.90;35.70
17208;DHT22;8720;48.488;9.202;2023-08-24T13:03:01;35.90;35.50
17208;DHT22;8720;48.488;9.202;2023-08-24T13:05:28;36.00;35.40
17208;DHT22;8720;48.488;9.202;2023-08-24T13:07:57;36.00;35.10
17208;DHT22;8720;48.488;9.202;2023-08-24T13:10:24;36.10;35.40
17208;DHT22;8720;48.488;9.202;2023-08-24T13:12:52;36.10;35.30
17208;DHT22;8720;48.488;9.202;2023-08-24T13:15:19;36.10;35.10
17208;DHT22;8720;48.488;9.202;2023-08-24T13:17:47;36.20;35.10
17208;DHT22;8720;48.488;9.202;2023-08-24T13:20:14;36.20;35.10
17208;DHT22;8720;48.488;9.202;2023-08-24T13:22:42;36.30;35.30
17208;DHT22;8720;48.488;9.202;2023-08-24T13:25:11;36.30;35.10
17208;DHT22;8720;48.488;9.202;2023-08-24T13:27:38;36.40;34.70
17208;DHT22;8720;48.488;9.202;2023-08-24T13:30:06;36.40;34.80
17208;DHT22;8720;48.488;9.202;2023-08-24T13:32:34;36.40;34.50
17208;DHT22;8720;48.488;9.202;2023-08-24T13:35:01;36.40;34.00
17208;DHT22;8720;48.488;9.202;2023-08-24T13:37:29;36.40;34.00
17208;DHT22;8720;48.488;9.202;2023-08-24T13:39:58;36.40;34.30
17208;DHT22;8720;48.488;9.202;2023-08-24T13:42:27;36.40;35.00
17208;DHT22;8720;48.488;9.202;2023-08-24T13:44:54;36.30;36.60
17208;DHT22;8720;48.488;9.202;2023-08-24T13:47:21;36.30;38.50
17208;DHT22;8720;48.488;9.202;2023-08-24T13:49:49;36.20;38.80
17208;DHT22;8720;48.488;9.202;2023-08-24T13:52:16;36.10;38.50
17208;DHT22;8720;48.488;9.202;2023-08-24T13:54:45;36.00;38.50
17208;DHT22;8720;48.488;9.202;2023-08-24T13:57:13;35.90;38.40
17208;DHT22;8720;48.488;9.202;2023-08-24T13:59:41;35.90;38.20
17208;DHT22;8720;48.488;9.202;2023-08-24T14:02:09;35.80;37.90
17208;DHT22;8720;48.488;9.202;2023-08-24T14:04:37;35.80;38.60
17208;DHT22;8720;48.488;9.202;2023-08-24T14:07:05;35.80;38.50
17208;DHT22;8720;48.488;9.202;2023-08-24T14:09:32;35.70;37.70
17208;DHT22;8720;48.488;9.202;2023-08-24T14:11:59;35.70;37.50
17208;DHT22;8720;48.488;9.202;2023-08-24T14:14:27;35.70;36.90
17208;DHT22;8720;48.488;9.202;2023-08-24T14:16:56;35.70;37.40
17208;DHT22;8720;48.488;9.202;2023-08-24T14:19:23;35.80;37.20
17208;DHT22;8720;48.488;9.202;2023-08-24T14:21:51;35.80;36.60
17208;DHT22;8720;48.488;9.202;2023-08-24T14:24:19;35.90;36.70
17208;DHT22;8720;48.488;9.202;2023-08-24T14:26:46;35.90;36.60
17208;DHT22;8720;48.488;9.202;2023-08-24T14:29:14;35.90;36.40
17208;DHT22;8720;48.488;9.202;2023-08-24T14:31:42;36.00;35.90
17208;DHT22;8720;48.488;9.202;2023-08-24T14:34:12;36.10;36.40
17208;DHT22;8720;48.488;9.202;2023-08-24T14:36:39;36.10;36.10
17208;DHT22;8720;48.488;9.202;2023-08-24T14:39:06;36.20;36.40
17208;DHT22;8720;48.488;9.202;2023-08-24T14:41:34;36.20;36.30
17208;DHT22;8720;48.488;9.202;2023-08-24T14:44:01;36.20;36.00
17208;DHT22;8720;48.488;9.202;2023-08-24T14:46:28;36.20;36.30
17208;DHT22;8720;48.488;9.202;2023-08-24T14:48:55;36.30;36.00
17208;DHT22;8720;48.488;9.202;2023-08-24T14:51:24;36.30;35.60
17208;DHT22;8720;48.488;9.202;2023-08-24T14:53:54;36.20;35.20
17208;DHT22;8720;48.488;9.202;2023-08-24T14:56:21;36.20;36.10
17208;DHT22;8720;48.488;9.202;2023-08-24T14:58:48;36.20;36.40
17208;DHT22;8720;48.488;9.202;2023-08-24T15:01:15;36.20;36.20
17208;DHT22;8720;48.488;9.202;2023-08-24T15:03:43;36.20;36.30
17208;DHT22;8720;48.488;9.202;2023-08-24T15:06:10;36.20;37.60
17208;DHT22;8720;48.488;9.202;2023-08-24T15:08:38;36.30;36.90
17208;DHT22;8720;48.488;9.202;2023-08-24T15:11:06;36.30;37.30
17208;DHT22;8720;48.488;9.202;2023-08-24T15:13:38;36.30;36.90
17208;DHT22;8720;48.488;9.202;2023-08-24T15:16:05;36.30;36.70
17208;DHT22;8720;48.488;9.202;2023-08-24T15:18:34;36.30;36.50
17208;DHT22;8720;48.488;9.202;2023-08-24T15:21:02;36.30;35.80
17208;DHT22;8720;48.488;9.202;2023-08-24T15:23:31;36.20;35.20
17208;DHT22;8720;48.488;9.202;2023-08-24T15:26:00;36.20;35.00
17208;DHT22;8720;48.488;9.202;2023-08-24T15:28:38;36.10;35.00
17208;DHT22;8720;48.488;9.202;2023-08-24T15:31:35;36.00;35.30
17208;DHT22;8720;48.488;9.202;2023-08-24T15:34:03;35.90;35.70
17208;DHT22;8720;48.488;9.202;2023-08-24T15:36:31;35.90;36.00
17208;DHT22;8720;48.488;9.202;2023-08-24T15:38:58;35.80;36.50
17208;DHT22;8720;48.488;9.202;2023-08-24T15:41:27;35.70;37.00
17208;DHT22;8720;48.488;9.202;2023-08-24T15:43:54;35.50;37.30
17208;DHT22;8720;48.488;9.202;2023-08-24T15:46:22;35.40;37.80
17208;DHT22;8720;48.488;9.202;2023-08-24T15:48:49;35.20;38.10
17208;DHT22;8720;48.488;9.202;2023-08-24T15:51:21;35.00;38.60
17208;DHT22;8720;48.488;9.202;2023-08-24T15:53:49;34.80;38.70
17208;DHT22;8720;48.488;9.202;2023-08-24T15:56:16;34.60;39.00
17208;DHT22;8720;48.488;9.202;2023-08-24T15:58:45;34.30;39.10